Time;durP1;ratioP1;P1;durP2;ratioP2;P2;SDS_P1;SDS_P2;PMS_P1;PMS_P2;Temp;Humidity;BMP_temperature;BMP_pressure;BME280_temperature;BME280_humidity;BME280_pressure;Samples;Min_cycle;Max_cycle;Signal;HPM_P1;HPM_P2
2024/01/10 00:01:26;;;;;;;;;114.00;76.00;;;;;-5.97;100.00;101183.34;6274964;20;3681678;-38
2024/01/10 00:03:56;;;;;;;;;99.67;72.00;;;;;-5.00;100.00;101177.19;6308238;20;3682571;-38
2024/01/10 00:06:26;;;;;;;;;106.00;71.33;;;;;-5.17;96.37;101176.78;6270343;20;4448237;-38
2024/01/10 00:08:56;;;;;;;;;94.67;68.33;;;;;-5.27;100.00;101174.75;6307868;20;3659637;-38
2024/01/10 00:11:25;;;;;;;;;91.67;68.00;;;;;-5.17;98.07;101177.66;6309751;20;3665863;-38
2024/01/10 00:13:59;;;;;;;;;94.67;69.00;;;;;-5.77;100.00;101172.50;6306823;20;3668110;-37
2024/01/10 00:16:27;;;;;;;;;80.00;57.00;;;;;-5.41;100.00;101172.66;6304511;20;2502469;-47
2024/01/10 00:18:55;;;;;;;;;74.00;57.00;;;;;-5.43;100.00;101174.34;6275282;20;2502473;-48
2024/01/10 00:21:24;;;;;;;;;76.20;52.80;;;;;-5.52;100.00;101168.88;6274533;20;3642969;-47
2024/01/10 00:23:52;;;;;;;;;70.00;50.00;;;;;-4.89;97.36;101167.91;6270999;20;2500297;-48
2024/01/10 00:26:21;;;;;;;;;70.50;51.00;;;;;-5.35;95.93;101166.69;6279014;20;2879566;-47
2024/01/10 00:28:50;;;;;;;;;67.67;51.67;;;;;-5.62;100.00;101161.59;6275821;20;2887532;-47
2024/01/10 00:31:19;;;;;;;;;77.00;53.00;;;;;-5.40;98.94;101168.31;6307428;20;2886766;-47
2024/01/10 00:33:49;;;;;;;;;80.00;54.33;;;;;-5.82;99.85;101164.56;6275861;20;2892149;-47
2024/01/10 00:36:18;;;;;;;;;76.33;54.00;;;;;-5.25;100.00;101181.81;6308855;20;2894049;-48
2024/01/10 00:38:47;;;;;;;;;70.00;52.00;;;;;-5.77;98.95;101177.75;6308702;20;2884688;-47
2024/01/10 00:41:16;;;;;;;;;79.00;54.00;;;;;-5.15;98.97;101180.31;6273337;20;2893093;-47
2024/01/10 00:43:45;;;;;;;;;70.00;49.00;;;;;-5.46;96.46;101189.09;6274153;20;2879466;-47
2024/01/10 00:46:14;;;;;;;;;75.33;50.00;;;;;-6.08;98.81;101182.13;6276786;20;3651340;-48
2024/01/10 00:48:43;;;;;;;;;58.67;40.00;;;;;-5.23;97.90;101185.34;6308327;20;3652338;-47
2024/01/10 00:51:12;;;;;;;;;78.00;53.60;;;;;-5.11;95.90;101182.16;6306434;20;3639846;-48
2024/01/10 00:53:40;;;;;;;;;83.00;54.00;;;;;-6.01;97.13;101178.84;6268678;20;2502556;-46
2024/01/10 00:56:11;;;;;;;;;79.67;52.67;;;;;-6.33;100.00;101174.38;6276517;20;3641982;-47
2024/01/10 00:58:41;;;;;;;;;78.50;58.00;;;;;-5.55;99.80;101188.00;6308244;20;2882599;-47
2024/01/10 01:01:10;;;;;;;;;73.67;52.00;;;;;-6.14;100.00;101179.31;6275318;20;2882816;-48
2024/01/10 01:03:38;;;;;;;;;66.50;52.00;;;;;-5.96;100.00;101187.72;6302003;20;2505507;-47
2024/01/10 01:06:07;;;;;;;;;65.50;49.00;;;;;-6.24;100.00;101177.25;6278812;20;2871125;-47
2024/01/10 01:08:37;;;;;;;;;66.67;45.67;;;;;-5.42;99.67;101183.09;6276098;20;2896255;-48
2024/01/10 01:11:05;;;;;;;;;67.00;48.00;;;;;-6.56;100.00;101181.50;6303402;20;2866938;-39
2024/01/10 01:13:34;;;;;;;;;60.00;48.00;;;;;-5.34;100.00;101190.31;6275418;20;2867989;-38
2024/01/10 01:16:04;;;;;;;;;48.33;42.00;;;;;-5.77;98.94;101186.47;6273284;20;2877416;-38
2024/01/10 01:18:31;;;;;;;;;63.00;49.00;;;;;-6.38;100.00;101187.28;6300659;20;2883729;-39
2024/01/10 01:21:00;;;;;;;;;74.00;51.50;;;;;-5.65;100.00;101193.81;6276381;20;2889900;-38
2024/01/10 01:23:29;;;;;;;;;67.00;49.00;;;;;-5.81;100.00;101186.38;6273667;20;2875277;-38
2024/01/10 01:26:08;;;;;;;;;76.50;48.50;;;;;-5.73;100.00;101192.69;6270160;20;2517991;-39
2024/01/10 01:28:36;;;;;;;;;66.50;49.00;;;;;-5.67;99.79;101192.88;6272027;20;2494060;-38
2024/01/10 01:31:06;;;;;;;;;68.33;46.33;;;;;-5.61;98.58;101181.69;6272902;20;2902443;-38
2024/01/10 01:33:39;;;;;;;;;74.00;48.33;;;;;-5.75;98.70;101183.91;6321670;20;3649234;-38
2024/01/10 01:36:08;;;;;;;;;70.00;49.00;;;;;-5.87;98.90;101180.94;6308418;20;2876738;-38
2024/01/10 01:38:37;;;;;;;;;68.33;48.00;;;;;-6.12;99.98;101182.88;6274129;20;3639825;-38
2024/01/10 01:41:05;;;;;;;;;47.00;41.00;;;;;-6.28;100.00;101183.25;6302193;20;2872160;-38
2024/01/10 01:43:35;;;;;;;;;53.00;37.00;;;;;-6.04;99.72;101189.22;6270267;20;2882597;-38
2024/01/10 01:46:04;;;;;;;;;41.80;32.20;;;;;-5.43;98.46;101190.03;6272248;20;3620131;-38
2024/01/10 01:48:33;;;;;;;;;32.33;27.00;;;;;-6.36;97.34;101187.34;6272185;20;3585700;-38
2024/01/10 01:51:07;;;;;;;;;46.00;34.00;;;;;-6.01;100.00;101194.53;6303619;20;2876354;-37
2024/01/10 01:53:36;;;;;;;;;44.00;36.50;;;;;-6.19;97.87;101187.03;6269386;20;2503063;-38
2024/01/10 01:56:09;;;;;;;;;51.50;38.00;;;;;-6.59;100.00;101195.34;6270092;20;2873288;-38
2024/01/10 01:58:39;;;;;;;;;30.33;19.00;;;;;-5.94;99.28;101194.72;6272617;20;3584616;-38
2024/01/10 02:01:07;;;;;;;;;48.50;29.00;;;;;-6.47;100.00;101181.81;6302424;20;2890056;-38
2024/01/10 02:03:37;;;;;;;;;47.00;32.00;;;;;-6.25;100.00;101183.34;6266037;20;2873347;-37
2024/01/10 02:06:05;;;;;;;;;54.50;39.00;;;;;-6.18;99.47;101174.84;6271755;20;2893018;-38
2024/01/10 02:08:34;;;;;;;;;61.00;40.00;;;;;-6.12;100.00;101180.25;6270700;20;2502367;-39
2024/01/10 02:11:04;;;;;;;;;44.00;37.00;;;;;-5.94;100.00;101174.69;6271342;20;2873306;-38
2024/01/10 02:13:33;;;;;;;;;39.67;30.67;;;;;-5.60;98.20;101179.13;6266992;20;3616934;-38
2024/01/10 02:16:04;;;;;;;;;46.50;32.00;;;;;-5.75;98.44;101171.72;6271101;20;2878512;-38
2024/01/10 02:18:34;;;;;;;;;42.50;33.50;;;;;-5.56;96.42;101173.13;6273679;20;2855495;-37
2024/01/10 02:21:03;;;;;;;;;43.00;33.00;;;;;-6.23;98.05;101169.47;6270980;20;2502407;-37
2024/01/10 02:23:34;;;;;;;;;44.00;36.50;;;;;-6.04;98.79;101168.28;6293452;20;2855523;-38
2024/01/10 02:26:02;;;;;;;;;44.00;37.00;;;;;-6.60;100.00;101167.47;6304436;20;2865977;-38
2024/01/10 02:28:30;;;;;;;;;42.50;39.00;;;;;-6.92;100.00;101167.31;6265662;20;2502388;-38
2024/01/10 02:30:59;;;;;;;;;37.33;31.33;;;;;-6.53;100.00;101166.81;6275409;20;3597130;-39
2024/01/10 02:33:28;;;;;;;;;32.67;25.00;;;;;-6.00;99.85;101167.56;6269041;20;3593997;-38
2024/01/10 02:35:56;;;;;;;;;50.00;42.00;;;;;-5.86;97.11;101169.66;6303830;20;2879464;-38
2024/01/10 02:38:24;;;;;;;;;52.00;37.00;;;;;-6.48;97.09;101154.75;6270688;20;2502363;-38
2024/01/10 02:40:53;;;;;;;;;47.00;34.00;;;;;-6.67;99.51;101168.09;6273431;20;2875342;-38
2024/01/10 02:43:21;;;;;;;;;49.00;37.00;;;;;-6.47;100.00;101160.91;6268856;20;2884853;-38
2024/01/10 02:45:51;;;;;;;;;65.33;44.50;;;;;-6.30;100.00;101164.00;6272983;20;3650302;-38
2024/01/10 02:48:20;;;;;;;;;62.33;37.67;;;;;-6.83;99.00;101165.84;6304280;20;2896184;-38
2024/01/10 02:50:48;;;;;;;;;51.50;34.00;;;;;-6.52;100.00;101162.47;6299899;20;2502372;-38
2024/01/10 02:53:18;;;;;;;;;48.00;30.50;;;;;-6.65;99.32;101166.41;6271781;20;3639368;-38
2024/01/10 02:55:47;;;;;;;;;48.00;34.50;;;;;-6.71;100.00;101159.28;6304802;20;2870058;-38
2024/01/10 02:58:15;;;;;;;;;45.50;36.50;;;;;-6.90;100.00;101165.63;6270778;20;2875269;-38
2024/01/10 03:00:43;;;;;;;;;49.00;39.50;;;;;-6.49;100.00;101168.66;6270026;20;2881628;-38
2024/01/10 03:03:12;;;;;;;;;51.00;42.00;;;;;-6.36;99.01;101169.94;6273611;20;2880601;-38
2024/01/10 03:05:41;;;;;;;;;53.60;41.00;;;;;-6.50;99.72;101166.00;6274022;20;3634642;-38
2024/01/10 03:08:10;;;;;;;;;46.67;34.33;;;;;-6.60;100.00;101172.69;6275053;20;3616935;-38
2024/01/10 03:10:38;;;;;;;;;42.50;31.00;;;;;-6.45;99.83;101170.56;6267395;20;2554441;-38
2024/01/10 03:13:07;;;;;;;;;50.33;36.33;;;;;-6.58;100.00;101170.09;6273161;20;3626378;-38
2024/01/10 03:15:36;;;;;;;;;57.33;39.33;;;;;-6.68;100.00;101164.59;6272977;20;2890916;-38
2024/01/10 03:18:05;;;;;;;;;50.50;43.00;;;;;-6.70;100.00;101165.38;6300577;20;2878417;-37
2024/01/10 03:20:34;;;;;;;;;48.33;36.33;;;;;-7.14;100.00;101159.59;6272175;20;3624314;-38
2024/01/10 03:23:02;;;;;;;;;54.00;45.00;;;;;-6.48;100.00;101161.72;6271432;20;2856548;-38
2024/01/10 03:25:32;;;;;;;;;69.50;44.50;;;;;-6.44;100.00;101161.88;6270413;20;3655545;-38
2024/01/10 03:28:02;;;;;;;;;77.33;52.67;;;;;-6.40;99.25;101155.00;6305649;20;2900261;-39
2024/01/10 03:30:31;;;;;;;;;63.40;52.80;;;;;-6.50;99.00;101161.69;6298191;20;3613827;-39
2024/01/10 03:33:00;;;;;;;;;84.00;62.20;;;;;-6.41;99.49;101161.06;6265495;20;3648339;-38
2024/01/10 03:35:30;;;;;;;;;88.67;60.33;;;;;-6.29;98.17;101155.31;6273205;20;2911859;-39
2024/01/10 03:37:59;;;;;;;;;78.00;60.00;;;;;-6.45;97.91;101157.50;6301254;20;2884643;-38
2024/01/10 03:40:27;;;;;;;;;73.00;52.00;;;;;-6.42;97.75;101154.09;6269836;20;2886743;-38
2024/01/10 03:42:57;;;;;;;;;102.00;69.33;;;;;-5.95;97.26;101159.81;6273720;20;3699205;-38
2024/01/10 03:45:28;;;;;;;;;92.00;64.17;;;;;-6.45;98.38;101154.88;6264414;20;3677479;-38
2024/01/10 03:47:57;;;;;;;;;81.67;57.00;;;;;-6.53;96.90;101153.75;6304505;20;2896883;-38
2024/01/10 03:50:26;;;;;;;;;57.00;45.00;;;;;-6.56;98.40;101151.03;6310102;20;2771060;-39
2024/01/10 03:52:55;;;;;;;;;49.60;38.60;;;;;-6.11;97.51;101155.88;6305297;20;3626293;-38
2024/01/10 03:55:25;;;;;;;;;67.00;45.00;;;;;-6.55;98.34;101152.81;6277257;20;3657624;-38
2024/01/10 03:57:53;;;;;;;;;66.50;48.00;;;;;-6.85;99.76;101148.38;6306108;20;2510758;-39
2024/01/10 04:00:22;;;;;;;;;72.00;46.00;;;;;-7.15;100.00;101152.59;6276109;20;3659642;-38
2024/01/10 04:02:50;;;;;;;;;73.00;52.00;;;;;-7.53;100.00;101153.06;6303684;20;2485890;-38
2024/01/10 04:05:22;;;;;;;;;83.33;57.00;;;;;-7.46;100.00;101161.97;6276268;20;2899231;-38
2024/01/10 04:07:52;;;;;;;;;90.00;61.67;;;;;-7.60;100.00;101161.50;6307573;20;3672580;-38
2024/01/10 04:10:21;;;;;;;;;81.00;59.40;;;;;-7.04;100.00;101161.66;6306999;20;3655497;-38
2024/01/10 04:12:50;;;;;;;;;74.80;57.00;;;;;-6.60;98.95;101159.63;6274074;20;3623180;-38
2024/01/10 04:15:19;;;;;;;;;73.00;58.50;;;;;-7.42;100.00;101166.47;6268786;20;2869024;-39
2024/01/10 04:17:47;;;;;;;;;68.00;52.00;;;;;-7.69;100.00;101163.75;6278301;20;2878783;-38
2024/01/10 04:20:17;;;;;;;;;70.00;55.00;;;;;-6.79;100.00;101167.69;6278783;20;2859643;-38
2024/01/10 04:22:44;;;;;;;;;74.00;57.50;;;;;-6.94;98.84;101166.38;6273939;20;2563901;-39
2024/01/10 04:25:12;;;;;;;;;26.00;9.00;;;;;-6.66;97.52;101172.47;6278287;20;2823221;-39
2024/01/10 04:27:40;;;;;;;;;63.50;48.00;;;;;-6.33;96.13;101177.88;6276244;20;2882697;-39
2024/01/10 04:30:10;;;;;;;;;53.00;44.00;;;;;-6.19;94.58;101178.28;6276934;20;2877441;-38
2024/01/10 04:32:39;;;;;;;;;68.00;44.33;;;;;-6.35;93.64;101178.66;6270848;20;2904559;-39
2024/01/10 04:35:07;;;;;;;;;70.00;52.00;;;;;-6.92;95.75;101172.53;6300254;20;2489826;-39
2024/01/10 04:37:35;;;;;;;;;75.50;56.00;;;;;-7.14;99.25;101172.63;6275959;20;2890994;-39
2024/01/10 04:40:06;;;;;;;;;77.00;54.00;;;;;-7.47;100.00;101172.38;6277677;20;2888928;-39
2024/01/10 04:42:36;;;;;;;;;68.20;49.00;;;;;-7.17;100.00;101176.03;6306932;20;3613800;-40
2024/01/10 04:45:07;;;;;;;;;72.67;49.67;;;;;-7.09;100.00;101184.13;6273899;20;3655573;-42
2024/01/10 04:47:36;;;;;;;;;66.50;49.00;;;;;-7.77;100.00;101176.50;6308922;20;2878406;-39
2024/01/10 04:50:05;;;;;;;;;67.00;49.00;;;;;-7.84;100.00;101179.75;6276524;20;2894056;-41
2024/01/10 04:52:39;;;;;;;;;66.50;46.50;;;;;-7.66;100.00;101194.28;6274647;20;2886810;-39
2024/01/10 04:55:08;;;;;;;;;63.00;50.00;;;;;-7.55;100.00;101193.84;6275110;20;2876358;-41
2024/01/10 04:57:37;;;;;;;;;60.20;45.60;;;;;-6.93;100.00;101186.41;6273540;20;3632660;-39
2024/01/10 05:00:07;;;;;;;;;68.00;48.00;;;;;-6.44;98.83;101192.34;6272819;20;2879600;-42
2024/01/10 05:02:35;;;;;;;;;70.40;48.80;;;;;-6.60;96.53;101188.34;6276180;20;3654459;-39
2024/01/10 05:05:06;;;;;;;;;65.80;42.00;;;;;-6.93;95.43;101188.13;6273709;20;3620125;-39
2024/01/10 05:07:35;;;;;;;;;55.00;48.00;;;;;-6.64;96.35;101191.69;6274836;20;2867034;-40
2024/01/10 05:10:04;;;;;;;;;78.00;57.50;;;;;-6.73;95.63;101194.91;6274782;20;2891002;-39
2024/01/10 05:12:32;;;;;;;;;75.00;57.00;;;;;-7.33;97.02;101185.03;6272134;20;2502368;-39
2024/01/10 05:15:02;;;;;;;;;98.67;72.00;;;;;-7.05;99.25;101187.75;6274486;20;3677344;-38
2024/01/10 05:17:31;;;;;;;;;96.17;68.33;;;;;-7.17;99.28;101185.59;6306148;20;4436698;-39
2024/01/10 05:20:01;;;;;;;;;90.83;62.83;;;;;-7.59;100.00;101191.06;6304278;20;3671249;-41
2024/01/10 05:22:31;;;;;;;;;77.80;57.40;;;;;-7.28;100.00;101188.69;6300409;20;3630453;-38
2024/01/10 05:25:01;;;;;;;;;97.17;62.67;;;;;-6.75;99.71;101193.97;6269562;20;3669178;-38
2024/01/10 05:27:30;;;;;;;;;87.80;63.80;;;;;-6.59;97.52;101189.22;6306653;20;3663814;-38
2024/01/10 05:30:00;;;;;;;;;83.50;64.67;;;;;-6.73;95.98;101188.78;6293768;20;3644015;-39
2024/01/10 05:32:30;;;;;;;;;86.83;60.00;;;;;-6.95;96.52;101187.19;6272466;20;3667990;-39
2024/01/10 05:34:59;;;;;;;;;80.50;63.00;;;;;-7.02;96.34;101195.66;6306048;20;2885718;-41
2024/01/10 05:37:29;;;;;;;;;99.67;67.67;;;;;-6.98;96.02;101197.53;6275485;20;3680479;-38
2024/01/10 05:39:58;;;;;;;;;109.67;78.67;;;;;-6.79;95.89;101201.63;6307429;20;3689409;-39
2024/01/10 05:42:28;;;;;;;;;132.00;92.33;;;;;-6.92;95.74;101192.53;6270630;20;4473224;-39
2024/01/10 05:45:02;;;;;;;;;101.67;69.00;;;;;-6.78;95.38;101192.97;6307848;20;3689826;-38
2024/01/10 05:47:31;;;;;;;;;92.20;66.20;;;;;-7.08;94.61;101191.13;6273301;20;3672128;-38
2024/01/10 05:49:59;;;;;;;;;79.00;58.00;;;;;-6.75;95.94;101190.47;6276486;20;2829492;-39
2024/01/10 05:52:27;;;;;;;;;66.80;46.00;;;;;-6.62;94.20;101192.63;6271095;20;3645102;-40
2024/01/10 05:54:55;;;;;;;;;45.50;45.00;;;;;-6.89;94.34;101183.06;6270880;20;2510813;-47
2024/01/10 05:57:25;;;;;;;;;55.33;40.00;;;;;-6.99;94.93;101187.94;6273365;20;2896287;-50
2024/01/10 05:59:56;;;;;;;;;40.33;24.67;;;;;-6.60;94.51;101183.13;6305748;20;3612797;-50
2024/01/10 06:02:26;;;;;;;;;55.33;37.67;;;;;-7.52;96.90;101177.41;6268328;20;2887791;-49
2024/01/10 06:04:55;;;;;;;;;77.50;53.50;;;;;-7.84;99.55;101189.28;6303652;20;3637817;-47
2024/01/10 06:07:25;;;;;;;;;91.83;64.67;;;;;-7.86;100.00;101186.63;6302200;20;3660857;-46
2024/01/10 06:09:55;;;;;;;;;91.00;67.00;;;;;-7.98;100.00;101186.16;6302321;20;3651339;-51
2024/01/10 06:12:25;;;;;;;;;112.67;79.83;;;;;-8.31;100.00;101191.88;6298571;20;4461710;-47
2024/01/10 06:14:57;;;;;;;;;117.25;85.75;;;;;-8.39;100.00;101188.97;6307839;20;3712871;-45
2024/01/10 06:17:27;;;;;;;;;167.00;145.00;;;;;-8.09;100.00;101195.28;6264695;20;3721206;-47
2024/01/10 06:19:58;;;;;;;;;169.00;141.17;;;;;-7.94;100.00;101193.28;6303928;20;4497927;-45
2024/01/10 06:22:28;;;;;;;;;176.80;154.20;;;;;-8.25;100.00;101193.81;6298595;20;3714876;-45
2024/01/10 06:24:59;;;;;;;;;166.67;142.83;;;;;-7.79;100.00;101201.66;6270796;20;3725382;-46
2024/01/10 06:27:30;;;;;;;;;176.17;151.00;;;;;-7.44;100.00;101202.06;6302097;20;3711787;-48
2024/01/10 06:29:59;;;;;;;;;170.67;150.50;;;;;-8.05;100.00;101199.81;6304240;20;3720204;-47
2024/01/10 06:32:29;;;;;;;;;167.67;144.67;;;;;-8.09;100.00;101197.91;6302721;20;3721147;-45
2024/01/10 06:35:01;;;;;;;;;148.33;136.83;;;;;-7.79;100.00;101204.28;6300660;20;4518051;-48
2024/01/10 06:37:30;;;;;;;;;151.00;131.25;;;;;-7.67;100.00;101206.44;6297804;20;3616927;-45
2024/01/10 06:40:04;;;;;;;;;129.17;110.33;;;;;-7.46;100.00;101203.72;6265099;20;4500199;-45
2024/01/10 06:42:33;;;;;;;;;85.00;60.83;;;;;-7.58;100.00;101200.66;6305352;20;3663870;-46
2024/01/10 06:45:03;;;;;;;;;84.60;60.80;;;;;-7.81;100.00;101215.47;6303335;20;3650286;-46
2024/01/10 06:47:33;;;;;;;;;58.80;44.60;;;;;-7.45;100.00;101217.63;6271561;20;3640940;-48
2024/01/10 06:50:05;;;;;;;;;67.20;50.60;;;;;-7.21;100.00;101218.53;6273716;20;3641900;-46
2024/01/10 06:52:33;;;;;;;;;73.00;54.00;;;;;-6.83;100.00;101213.72;6268096;20;2502409;-46
2024/01/10 06:55:04;;;;;;;;;82.40;58.80;;;;;-6.30;99.80;101216.28;6272463;20;3642967;-46
2024/01/10 06:57:32;;;;;;;;;84.00;64.00;;;;;-6.56;98.58;101213.72;6272534;20;2887733;-47
2024/01/10 07:00:06;;;;;;;;;87.00;61.67;;;;;-6.27;96.70;101211.16;6276237;20;2907655;-45
2024/01/10 07:02:35;;;;;;;;;93.00;66.00;;;;;-6.19;94.89;101217.50;6302686;20;2790992;-45
2024/01/10 07:05:09;;;;;;;;;87.00;64.00;;;;;-6.25;95.92;101214.69;6265761;20;2569186;-45
2024/01/10 07:07:39;;;;;;;;;102.50;75.67;;;;;-6.10;94.84;101223.03;6267816;20;3667970;-45
2024/01/10 07:10:10;;;;;;;;;90.67;65.33;;;;;-6.15;95.79;101219.38;6303839;20;3658605;-45
2024/01/10 07:12:41;;;;;;;;;99.33;69.33;;;;;-6.67;97.11;101220.31;6304097;20;3663249;-45
2024/01/10 07:15:11;;;;;;;;;90.33;60.83;;;;;-6.73;99.45;101220.13;6305300;20;3653401;-47
2024/01/10 07:17:40;;;;;;;;;74.00;54.00;;;;;-6.67;99.78;101225.56;6304918;20;2888848;-44
2024/01/10 07:20:11;;;;;;;;;63.67;45.33;;;;;-6.68;100.00;101223.78;6273976;20;3625258;-44
2024/01/10 07:22:43;;;;;;;;;63.50;48.00;;;;;-6.53;100.00;101220.78;6270837;20;2880489;-43
2024/01/10 07:25:14;;;;;;;;;90.67;66.00;;;;;-5.64;94.89;101229.56;6278298;20;3660662;-45
2024/01/10 07:27:44;;;;;;;;;79.00;60.50;;;;;-5.45;93.56;101228.38;6307290;20;2892055;-46
2024/01/10 07:30:14;;;;;;;;;85.00;60.33;;;;;-5.83;95.08;101230.75;6277816;20;2913841;-45
2024/01/10 07:32:46;;;;;;;;;85.50;65.00;;;;;-5.21;92.92;101233.41;6301948;20;2502401;-44
2024/01/10 07:35:15;;;;;;;;;91.00;67.00;;;;;-6.08;95.44;101226.56;6279793;20;2776336;-46
2024/01/10 07:37:45;;;;;;;;;98.17;69.00;;;;;-5.99;96.21;101229.44;6305964;20;3680492;-46
2024/01/10 07:40:15;;;;;;;;;110.67;75.00;;;;;-5.71;96.00;101234.56;6299983;20;3697162;-45
2024/01/10 07:42:45;;;;;;;;;126.00;86.67;;;;;-5.08;93.99;101239.88;6278149;20;3703424;-48
2024/01/10 07:45:14;;;;;;;;;73.80;55.80;;;;;-4.77;91.12;101246.78;6273963;20;3624257;-46
2024/01/10 07:47:46;;;;;;;;;100.67;69.00;;;;;-4.68;89.67;101239.16;6275434;20;3684789;-45
2024/01/10 07:50:15;;;;;;;;;85.00;62.20;;;;;-4.49;88.65;101245.75;6270712;20;3653374;-45
2024/01/10 07:52:44;;;;;;;;;60.00;54.00;;;;;-4.31;89.42;101241.81;6273086;20;2502394;-44
2024/01/10 07:55:13;;;;;;;;;80.40;57.20;;;;;-4.35;88.40;101240.84;6273186;20;3636712;-45
2024/01/10 07:57:43;;;;;;;;;90.00;61.67;;;;;-4.75;90.26;101239.84;6276601;20;3669563;-48
2024/01/10 08:00:13;;;;;;;;;94.67;68.33;;;;;-4.61;90.83;101242.81;6308897;20;3672087;-45
2024/01/10 08:02:43;;;;;;;;;89.33;66.33;;;;;-4.63;91.56;101250.66;6309985;20;2905444;-46
2024/01/10 08:05:13;;;;;;;;;92.33;69.00;;;;;-3.51;88.24;101249.72;6308118;20;3666319;-46
2024/01/10 08:07:41;;;;;;;;;90.00;66.00;;;;;-3.41;85.62;101262.19;6307829;20;2714899;-45
2024/01/10 08:10:13;;;;;;;;;92.67;68.67;;;;;-3.14;84.26;101250.44;6310762;20;3664886;-48
2024/01/10 08:12:44;;;;;;;;;98.67;72.00;;;;;-3.12;84.46;101259.25;6308674;20;3689847;-48
2024/01/10 08:15:14;;;;;;;;;101.00;72.33;;;;;-2.99;83.63;101255.13;6276962;20;3675268;-46
2024/01/10 08:17:43;;;;;;;;;108.33;79.00;;;;;-2.63;81.85;101257.53;6309092;20;3692985;-45
2024/01/10 08:20:19;;;;;;;;;112.00;89.67;;;;;-2.66;79.40;101253.13;6275849;20;3706524;-45
2024/01/10 08:22:50;;;;;;;;;162.75;134.00;;;;;-2.13;75.38;101262.75;6278757;20;4500251;-45
2024/01/10 08:25:19;;;;;;;;;121.00;96.67;;;;;-2.40;75.13;101262.28;6308860;20;3705449;-45
2024/01/10 08:27:52;;;;;;;;;146.00;123.33;;;;;-2.27;76.77;101259.00;6275950;20;3712805;-45
2024/01/10 08:30:21;;;;;;;;;117.67;94.67;;;;;-2.02;77.06;101263.78;6278236;20;3704416;-45
2024/01/10 08:32:52;;;;;;;;;98.00;71.33;;;;;-1.91;73.44;101257.81;6276508;20;3672119;-45
2024/01/10 08:35:22;;;;;;;;;104.33;78.00;;;;;-1.72;71.61;101267.72;6305962;20;3677372;-46
2024/01/10 08:37:57;;;;;;;;;100.67;72.67;;;;;-1.60;71.47;101269.66;6272185;20;3683589;-49
2024/01/10 08:40:27;;;;;;;;;100.00;69.33;;;;;-1.27;66.66;101269.19;6274020;20;3690949;-44
2024/01/10 08:42:57;;;;;;;;;110.00;82.00;;;;;-1.45;67.42;101268.94;6273092;20;3674275;-47
2024/01/10 08:45:26;;;;;;;;;64.50;52.50;;;;;-1.73;60.48;101263.34;6309591;20;2861884;-47
2024/01/10 08:47:57;;;;;;;;;66.00;51.00;;;;;-1.13;57.88;101262.34;6276006;20;2857670;-47
2024/01/10 08:50:26;;;;;;;;;72.50;51.50;;;;;-1.06;57.17;101258.00;6277862;20;2885091;-46
2024/01/10 08:52:56;;;;;;;;;92.33;70.67;;;;;-1.31;58.51;101267.41;6274060;20;3636858;-46
2024/01/10 08:55:26;;;;;;;;;98.67;72.33;;;;;-1.07;59.24;101258.00;6307356;20;3660847;-47
2024/01/10 08:57:55;;;;;;;;;95.33;76.33;;;;;-0.80;59.74;101257.41;6308266;20;2873283;-45
2024/01/10 09:00:25;;;;;;;;;85.00;61.00;;;;;-1.12;58.24;101261.47;6310529;20;3669080;-46
2024/01/10 09:02:55;;;;;;;;;58.00;48.00;;;;;-1.46;56.89;101259.28;6307840;20;2882587;-44
2024/01/10 09:05:25;;;;;;;;;95.67;69.00;;;;;-0.95;64.01;101259.03;6276131;20;3654481;-47
2024/01/10 09:07:54;;;;;;;;;78.33;59.33;;;;;-0.78;63.17;101267.09;6310305;20;3637821;-44
2024/01/10 09:10:24;;;;;;;;;75.00;58.00;;;;;-0.58;61.86;101258.50;6308992;20;2883629;-45
2024/01/10 09:12:53;;;;;;;;;66.50;53.00;;;;;-1.41;64.57;101254.97;6277182;20;2863871;-47
2024/01/10 09:15:22;;;;;;;;;91.00;64.00;;;;;-0.92;64.39;101250.28;6278194;20;3660668;-47
2024/01/10 09:17:52;;;;;;;;;68.67;51.00;;;;;-0.41;61.03;101250.75;6308470;20;3622152;-47
2024/01/10 09:20:21;;;;;;;;;71.50;54.00;;;;;-1.33;63.00;101254.19;6309493;20;2867079;-47
2024/01/10 09:22:49;;;;;;;;;68.00;57.00;;;;;-0.50;60.97;101259.44;6272884;20;2500309;-47
2024/01/10 09:25:19;;;;;;;;;121.33;101.67;;;;;-1.09;60.77;101244.81;6275316;20;3703456;-47
2024/01/10 09:27:49;;;;;;;;;110.33;103.33;;;;;-0.73;62.07;101246.06;6272688;20;3683595;-45
2024/01/10 09:30:18;;;;;;;;;83.00;64.00;;;;;-0.62;62.47;101246.16;6265758;20;2506549;-47
2024/01/10 09:32:46;;;;;;;;;61.50;47.00;;;;;-0.06;58.27;101245.72;6274798;20;2492011;-45
2024/01/10 09:35:17;;;;;;;;;58.00;46.00;;;;;0.10;57.14;101236.16;6278465;20;2874336;-45
2024/01/10 09:37:47;;;;;;;;;63.00;48.50;;;;;0.31;56.86;101240.69;6279035;20;2866005;-50
2024/01/10 09:40:17;;;;;;;;;89.67;67.67;;;;;-0.44;56.48;101238.41;6276789;20;3650382;-47
2024/01/10 09:42:54;;;;;;;;;55.00;46.00;;;;;-0.17;56.77;101232.47;6304122;20;2493214;-47
2024/01/10 09:45:26;;;;;;;;;73.67;53.33;;;;;0.81;54.43;101226.78;6275362;20;2883687;-46
2024/01/10 09:47:57;;;;;;;;;62.00;47.50;;;;;0.04;51.37;101225.56;6309041;20;2888847;-47
2024/01/10 09:50:26;;;;;;;;;45.00;39.00;;;;;0.74;51.65;101225.91;6279520;20;2869089;-46
2024/01/10 09:53:07;;;;;;;;;64.00;53.50;;;;;0.03;51.53;101227.31;6273949;20;2862783;-46
2024/01/10 09:55:38;;;;;;;;;23.67;19.00;;;;;-0.34;50.28;101221.78;6277468;20;3555584;-47
2024/01/10 09:58:10;;;;;;;;;22.67;18.67;;;;;-0.25;45.88;101227.13;6307673;20;3568031;-46
2024/01/10 10:00:41;;;;;;;;;13.14;11.86;;;;;-0.56;44.40;101220.72;6343449;20;1817104;-45
2024/01/10 10:03:12;;;;;;;;;32.33;25.00;;;;;0.24;46.60;101223.00;6308647;20;3589908;-45
2024/01/10 10:05:42;;;;;;;;;48.00;41.50;;;;;0.85;46.71;101213.59;6275041;20;2864991;-44
2024/01/10 10:08:15;;;;;;;;;24.50;22.00;;;;;1.01;46.21;101209.22;6278370;20;2826517;-45
2024/01/10 10:10:44;;;;;;;;;30.67;20.33;;;;;1.10;45.73;101205.72;6276486;20;3576288;-47
2024/01/10 10:13:29;;;;;;;;;29.00;21.50;;;;;1.09;46.02;101202.19;6306385;20;2498204;-44
2024/01/10 10:16:05;;;;;;;;;27.00;21.50;;;;;1.41;45.16;101211.91;6278783;20;2827503;-47
2024/01/10 10:18:34;;;;;;;;;12.33;12.00;;;;;1.47;45.04;101198.69;6274177;20;2777488;-48
2024/01/10 10:21:14;;;;;;;;;33.00;23.50;;;;;1.28;46.54;101202.22;6303809;20;2492062;-45
2024/01/10 10:23:59;;;;;;;;;31.00;20.33;;;;;1.31;45.95;101202.19;6274696;20;3575256;-45
2024/01/10 10:26:29;;;;;;;;;26.50;26.50;;;;;1.72;45.95;101188.09;6305391;20;2500321;-47
2024/01/10 10:28:58;;;;;;;;;39.50;32.50;;;;;1.81;46.03;101197.78;6271500;20;2860710;-47
2024/01/10 10:31:29;;;;;;;;;31.00;28.50;;;;;1.76;45.38;101195.13;6272718;20;2846183;-47
2024/01/10 10:34:02;;;;;;;;;35.00;33.00;;;;;2.00;44.95;101193.31;6272476;20;2867038;-46
2024/01/10 10:36:33;;;;;;;;;29.00;22.50;;;;;2.35;45.31;101191.47;6273104;20;2500332;-45
2024/01/10 10:39:03;;;;;;;;;38.00;34.00;;;;;2.43;45.45;101191.44;6275105;20;3594135;-44
2024/01/10 10:41:36;;;;;;;;;34.50;26.00;;;;;2.47;44.59;101190.53;6276859;20;2865912;-46
2024/01/10 10:44:10;;;;;;;;;26.00;24.33;;;;;2.21;43.85;101182.66;6273023;20;3581530;-47
2024/01/10 10:46:40;;;;;;;;;42.00;34.00;;;;;2.24;42.30;101182.69;6273520;20;2872294;-45
2024/01/10 10:49:13;;;;;;;;;22.00;20.50;;;;;2.09;42.09;101172.13;6275530;20;2824353;-45
2024/01/10 10:51:42;;;;;;;;;20.50;18.00;;;;;1.72;41.98;101173.09;6274581;20;2818934;-46
2024/01/10 10:54:10;;;;;;;;;21.00;21.00;;;;;2.30;43.01;101176.47;6271690;20;2814850;-47
2024/01/10 10:56:41;;;;;;;;;21.00;17.50;;;;;1.98;42.30;101178.34;6276098;20;2817023;-46
2024/01/10 10:59:11;;;;;;;;;17.33;15.67;;;;;2.12;42.04;101169.47;6275921;20;3549238;-46
2024/01/10 11:01:41;;;;;;;;;31.00;27.67;;;;;2.27;41.96;101169.41;6311228;20;3585663;-45
2024/01/10 11:04:13;;;;;;;;;21.67;17.67;;;;;1.72;40.62;101166.91;6310706;20;3560651;-47